Time;durP1;ratioP1;P1;durP2;ratioP2;P2;SDS_P1;SDS_P2;PMS_P1;PMS_P2;Temp;Humidity;BMP_temperature;BMP_pressure;BME280_temperature;BME280_humidity;BME280_pressure;Samples;Min_cycle;Max_cycle;Signal;HPM_P1;HPM_P2
2021/08/31 00:01:53;;;;;;;1.07;0.80;;;;;;;15.91;66.07;99248.91;4883695;29;20237;-88
2021/08/31 00:04:20;;;;;;;0.90;0.80;;;;;;;15.92;66.22;99256.72;4883368;29;20641;-88
2021/08/31 00:06:48;;;;;;;0.90;0.67;;;;;;;15.90;65.92;99241.88;4883830;29;20228;-87
2021/08/31 00:09:15;;;;;;;0.60;0.57;;;;;;;15.86;66.13;99241.59;4880252;29;20237;-84
2021/08/31 00:11:44;;;;;;;0.60;0.60;;;;;;;15.93;66.05;99244.03;4899019;29;20238;-87
2021/08/31 00:14:11;;;;;;;0.60;0.60;;;;;;;15.84;66.17;99235.63;4884678;29;20313;-85
2021/08/31 00:16:39;;;;;;;1.47;0.60;;;;;;;15.82;66.32;99229.66;4887123;29;20238;-87
2021/08/31 00:19:06;;;;;;;1.33;0.70;;;;;;;15.83;65.88;99236.69;4914422;29;20598;-87
2021/08/31 00:21:32;;;;;;;0.83;0.67;;;;;;;15.88;66.36;99244.84;4905810;29;20292;-86
2021/08/31 00:23:59;;;;;;;0.97;0.60;;;;;;;15.72;66.31;99216.94;4905774;29;20290;-87
2021/08/31 00:26:26;;;;;;;0.60;0.60;;;;;;;15.80;66.17;99235.34;4905641;29;20249;-88
2021/08/31 00:28:53;;;;;;;0.50;0.50;;;;;;;15.86;65.88;99234.28;4895959;29;20270;-88
2021/08/31 00:31:20;;;;;;;2.03;0.60;;;;;;;15.82;65.82;99225.09;4886726;29;20743;-83
2021/08/31 00:33:47;;;;;;;0.90;0.70;;;;;;;15.96;65.73;99246.25;4902244;29;20301;-87
2021/08/31 00:36:14;;;;;;;1.43;0.63;;;;;;;15.98;65.39;99249.47;4902919;29;20630;-85
2021/08/31 00:38:40;;;;;;;1.13;0.70;;;;;;;16.00;65.32;99248.16;4909506;29;20263;-87
2021/08/31 00:41:07;;;;;;;0.60;0.60;;;;;;;16.00;65.18;99241.94;4890058;29;20232;-88
2021/08/31 00:43:48;;;;;;;1.03;0.60;;;;;;;16.03;65.15;99242.22;4921169;29;20260;-88
2021/08/31 00:46:15;;;;;;;0.70;0.67;;;;;;;16.16;64.48;99243.59;4916301;29;20230;-81
2021/08/31 00:48:43;;;;;;;0.60;0.60;;;;;;;16.19;64.72;99248.50;4910446;29;20233;-86
2021/08/31 00:51:11;;;;;;;0.60;0.60;;;;;;;16.14;64.77;99245.75;4920993;29;20230;-84
2021/08/31 00:53:39;;;;;;;1.27;0.70;;;;;;;16.18;64.68;99244.16;4905321;29;20297;-88
2021/08/31 00:56:09;;;;;;;0.80;0.70;;;;;;;16.12;64.75;99242.50;4904919;29;20269;-87
2021/08/31 00:58:35;;;;;;;0.70;0.70;;;;;;;16.08;64.61;99238.72;4920337;29;20229;-85
2021/08/31 01:01:02;;;;;;;0.77;0.77;;;;;;;16.08;65.06;99246.81;4905059;29;20236;-86
2021/08/31 01:03:30;;;;;;;1.53;0.70;;;;;;;16.01;65.54;99238.13;4905212;29;20260;-86
2021/08/31 01:05:57;;;;;;;1.83;0.80;;;;;;;16.00;65.84;99245.44;4904990;29;20265;-81
2021/08/31 01:08:25;;;;;;;0.50;0.50;;;;;;;15.84;66.06;99222.94;4888363;29;20241;-83
2021/08/31 01:10:53;;;;;;;0.80;0.80;;;;;;;15.81;65.87;99220.78;4920596;29;20245;-82
2021/08/31 01:13:20;;;;;;;0.60;0.60;;;;;;;15.80;66.44;99234.53;4904779;29;20232;-85
2021/08/31 01:15:47;;;;;;;0.80;0.80;;;;;;;15.67;67.16;99229.63;4904902;29;20229;-88
2021/08/31 01:18:22;;;;;;;1.00;1.00;;;;;;;15.59;67.55;99230.91;4918513;29;20227;-83
2021/08/31 01:20:53;;;;;;;0.87;0.80;;;;;;;15.56;68.20;99238.72;4904781;29;20323;-85
2021/08/31 01:23:21;;;;;;;1.50;0.83;;;;;;;15.39;68.38;99222.69;4889138;29;20295;-87
2021/08/31 01:25:49;;;;;;;0.70;0.70;;;;;;;15.43;68.60;99239.97;4919082;29;20257;-83
2021/08/31 01:28:23;;;;;;;3.53;1.10;;;;;;;15.38;69.06;99248.03;4901646;29;20226;-87
2021/08/31 01:30:52;;;;;;;1.00;1.00;;;;;;;15.28;68.76;99237.97;4900970;29;20238;-89
2021/08/31 01:33:23;;;;;;;1.33;0.80;;;;;;;15.24;69.22;99241.47;4870308;29;20257;-87
2021/08/31 01:35:50;;;;;;;0.80;0.80;;;;;;;15.21;69.52;99247.38;4901113;29;20239;-87
2021/08/31 01:38:16;;;;;;;0.97;0.90;;;;;;;15.19;69.35;99247.63;4887310;29;20252;-84
2021/08/31 01:40:43;;;;;;;0.70;0.70;;;;;;;15.11;69.04;99237.31;4919566;29;20224;-88
2021/08/31 01:43:10;;;;;;;0.80;0.80;;;;;;;15.16;68.81;99240.06;4903559;29;20237;-85
2021/08/31 01:45:47;;;;;;;0.70;0.70;;;;;;;15.11;68.68;99225.72;4888663;29;20647;-86
2021/08/31 01:48:13;;;;;;;0.70;0.70;;;;;;;15.05;68.43;99224.84;4917792;29;20263;-84
2021/08/31 01:50:40;;;;;;;0.60;0.60;;;;;;;15.07;68.73;99238.09;4885476;29;20272;-87
2021/08/31 01:53:09;;;;;;;0.80;0.80;;;;;;;15.05;68.49;99234.84;4885506;29;20282;-87
2021/08/31 01:55:35;;;;;;;0.70;0.70;;;;;;;15.08;68.45;99235.13;4900814;29;20257;-88
2021/08/31 01:58:02;;;;;;;0.83;0.83;;;;;;;15.01;68.75;99237.25;4900301;29;20295;-86
2021/08/31 02:00:30;;;;;;;1.20;0.80;;;;;;;15.03;68.76;99231.56;4885272;29;20234;-85
2021/08/31 02:02:58;;;;;;;0.70;0.70;;;;;;;15.05;68.47;99232.13;4884875;29;20236;-88
2021/08/31 02:05:26;;;;;;;0.80;0.80;;;;;;;15.03;68.50;99237.78;4911437;29;20227;-82
2021/08/31 02:07:53;;;;;;;1.10;1.00;;;;;;;14.94;68.76;99226.66;4919359;29;20240;-88
2021/08/31 02:10:20;;;;;;;1.13;0.93;;;;;;;14.86;68.89;99223.63;4870490;29;20237;-84
2021/08/31 02:12:46;;;;;;;0.97;0.97;;;;;;;14.87;69.34;99233.34;4885354;29;20231;-83
2021/08/31 02:15:13;;;;;;;0.80;0.80;;;;;;;14.80;69.12;99222.75;4900627;29;20324;-86
2021/08/31 02:17:41;;;;;;;3.00;0.80;;;;;;;14.83;69.57;99240.31;4912560;29;20632;-84
2021/08/31 02:20:09;;;;;;;0.60;0.60;;;;;;;14.85;69.46;99233.59;4918681;29;20237;-84
2021/08/31 02:22:36;;;;;;;0.80;0.80;;;;;;;14.80;69.58;99233.53;4903774;29;20293;-82
2021/08/31 02:25:03;;;;;;;1.37;0.90;;;;;;;14.74;69.81;99223.00;4903532;29;20264;-87
2021/08/31 02:27:30;;;;;;;0.80;0.80;;;;;;;14.78;69.42;99227.63;4888196;29;20237;-82
2021/08/31 02:29:56;;;;;;;1.03;0.93;;;;;;;14.81;69.48;99232.47;4912036;29;20239;-82
2021/08/31 02:32:23;;;;;;;0.90;0.90;;;;;;;14.71;70.10;99226.19;4902899;29;20323;-88
2021/08/31 02:34:50;;;;;;;0.97;0.93;;;;;;;14.76;70.37;99229.75;4903532;29;20295;-84
2021/08/31 02:37:17;;;;;;;1.10;1.10;;;;;;;14.71;70.50;99229.69;4919657;29;20291;-81
2021/08/31 02:39:43;;;;;;;1.00;1.00;;;;;;;14.67;70.39;99227.75;4887111;29;20254;-82
2021/08/31 02:42:10;;;;;;;0.87;0.87;;;;;;;14.64;70.54;99226.41;4903136;29;20237;-87
2021/08/31 02:44:37;;;;;;;1.80;0.90;;;;;;;14.59;70.82;99220.97;4918925;29;20357;-87
2021/08/31 02:47:04;;;;;;;0.80;0.80;;;;;;;14.61;70.72;99223.38;4918852;29;20731;-81
2021/08/31 02:49:31;;;;;;;1.07;1.07;;;;;;;14.61;70.61;99229.59;4902825;29;20582;-86
2021/08/31 02:51:58;;;;;;;1.00;1.00;;;;;;;14.53;70.24;99217.41;4918759;29;20505;-89
2021/08/31 02:54:25;;;;;;;0.87;0.77;;;;;;;14.57;70.66;99225.78;4887159;29;20235;-87
2021/08/31 02:56:52;;;;;;;0.93;0.90;;;;;;;14.59;71.29;99231.75;4887426;29;20597;-89
2021/08/31 02:59:19;;;;;;;0.90;0.90;;;;;;;14.47;71.15;99222.97;4911159;29;20315;-87
2021/08/31 03:02:04;;;;;;;0.90;0.90;;;;;;;14.49;71.33;99232.47;4899420;29;20245;-82
2021/08/31 03:04:37;;;;;;;0.87;0.87;;;;;;;14.50;71.78;99231.41;4899458;29;20311;-81
2021/08/31 03:07:06;;;;;;;1.23;1.00;;;;;;;14.44;72.02;99234.28;4884095;29;20264;-88
2021/08/31 03:09:33;;;;;;;1.00;0.90;;;;;;;14.47;71.56;99223.78;4908787;29;20316;-85
2021/08/31 03:12:00;;;;;;;0.83;0.83;;;;;;;14.41;71.62;99205.16;4918220;29;20236;-84
2021/08/31 03:14:28;;;;;;;0.80;0.80;;;;;;;14.47;71.64;99206.81;4918127;29;20230;-81
2021/08/31 03:16:55;;;;;;;0.80;0.80;;;;;;;14.49;71.11;99208.19;4902862;29;20291;-88
2021/08/31 03:19:24;;;;;;;1.07;1.07;;;;;;;14.50;71.06;99209.84;4917795;29;20318;-88
2021/08/31 03:21:56;;;;;;;1.00;0.90;;;;;;;14.61;70.84;99213.41;4918274;29;20235;-89
2021/08/31 03:24:23;;;;;;;1.27;1.00;;;;;;;14.62;70.96;99216.94;4902530;29;20247;-86
2021/08/31 03:26:50;;;;;;;1.17;1.00;;;;;;;14.67;71.11;99219.69;4902476;29;20319;-88
2021/08/31 03:29:17;;;;;;;0.80;0.80;;;;;;;14.80;70.40;99222.75;4881451;29;21308;-88
2021/08/31 03:31:44;;;;;;;0.97;0.90;;;;;;;14.85;70.41;99228.19;4868313;29;20241;-86
2021/08/31 03:34:11;;;;;;;1.00;1.00;;;;;;;15.05;69.54;99218.66;4883762;29;20332;-90
2021/08/31 03:36:39;;;;;;;0.80;0.80;;;;;;;15.15;69.37;99226.81;4884058;29;20659;-82
2021/08/31 03:39:06;;;;;;;0.80;0.80;;;;;;;15.31;68.83;99217.75;4903933;29;20268;-88
2021/08/31 03:41:33;;;;;;;0.93;0.93;;;;;;;15.50;68.24;99223.53;4902114;29;20233;-87
2021/08/31 03:44:00;;;;;;;1.00;1.00;;;;;;;15.56;67.70;99236.03;4916603;29;20588;-86
2021/08/31 03:46:27;;;;;;;0.97;0.97;;;;;;;15.64;67.76;99227.41;4918446;29;20286;-86
2021/08/31 03:48:54;;;;;;;0.90;0.90;;;;;;;15.72;67.64;99227.72;4886254;29;20257;-89
2021/08/31 03:51:21;;;;;;;0.90;0.90;;;;;;;15.73;67.66;99225.84;4921598;29;20246;-89
2021/08/31 03:53:48;;;;;;;0.80;0.80;;;;;;;15.76;67.46;99230.75;4890737;29;20590;-85
2021/08/31 03:56:14;;;;;;;0.97;0.90;;;;;;;15.80;67.42;99221.84;4921474;29;20249;-89
2021/08/31 03:58:41;;;;;;;0.90;0.90;;;;;;;15.96;67.27;99240.84;4921438;29;20286;-86
2021/08/31 04:01:08;;;;;;;0.90;0.90;;;;;;;16.00;67.24;99245.44;4887445;29;20241;-89
2021/08/31 04:03:35;;;;;;;1.03;0.93;;;;;;;16.03;66.97;99239.50;4872161;29;20253;-88
2021/08/31 04:06:02;;;;;;;0.90;0.90;;;;;;;16.10;66.87;99244.66;4902834;29;20242;-87
2021/08/31 04:08:29;;;;;;;1.00;1.00;;;;;;;16.15;66.69;99248.19;4903816;29;20633;-88
2021/08/31 04:10:56;;;;;;;0.97;0.97;;;;;;;16.16;66.76;99230.91;4904601;29;20245;-87
2021/08/31 04:13:23;;;;;;;1.10;1.00;;;;;;;16.16;66.68;99230.91;4890254;29;20648;-85
2021/08/31 04:15:49;;;;;;;1.20;1.10;;;;;;;16.31;66.07;99227.44;4905793;29;20235;-88
2021/08/31 04:18:16;;;;;;;1.00;1.00;;;;;;;16.22;66.26;99231.72;4905700;29;20249;-83
2021/08/31 04:20:43;;;;;;;0.93;0.93;;;;;;;16.27;66.39;99240.69;4919829;29;20648;-88
2021/08/31 04:23:10;;;;;;;1.30;1.20;;;;;;;16.28;66.10;99234.16;4906069;29;20336;-80
2021/08/31 04:25:37;;;;;;;1.13;1.13;;;;;;;16.34;65.80;99240.41;4905791;29;20253;-85
2021/08/31 04:28:04;;;;;;;1.10;1.00;;;;;;;16.38;65.83;99238.00;4921182;29;20325;-89
2021/08/31 04:30:31;;;;;;;1.10;1.10;;;;;;;16.44;65.79;99245.84;4908403;29;20631;-87
2021/08/31 04:32:58;;;;;;;1.40;1.30;;;;;;;16.54;65.67;99243.16;4902225;29;20237;-82
2021/08/31 04:35:25;;;;;;;1.40;1.30;;;;;;;16.60;65.38;99239.44;4886851;29;20227;-88
2021/08/31 04:37:52;;;;;;;2.47;1.37;;;;;;;16.59;65.65;99234.28;4901854;29;20522;-88
2021/08/31 04:40:19;;;;;;;1.80;1.70;;;;;;;16.68;65.46;99247.00;4881226;29;20641;-88
2021/08/31 04:42:46;;;;;;;1.70;1.60;;;;;;;16.76;65.44;99240.25;4876678;29;20297;-85
2021/08/31 04:45:13;;;;;;;1.77;1.57;;;;;;;16.86;65.05;99234.84;4902429;29;20238;-88
2021/08/31 04:47:40;;;;;;;1.70;1.60;;;;;;;17.00;64.89;99245.94;4886680;29;20240;-87
2021/08/31 04:50:08;;;;;;;1.90;1.80;;;;;;;16.99;64.68;99237.00;4903780;29;20230;-87
2021/08/31 04:52:34;;;;;;;1.80;1.70;;;;;;;17.12;64.31;99239.16;4917736;29;20698;-85
2021/08/31 04:55:02;;;;;;;3.83;1.70;;;;;;;17.37;63.80;99235.63;4920167;29;20241;-85
2021/08/31 04:57:29;;;;;;;2.90;1.90;;;;;;;17.45;63.80;99218.81;4920532;29;20268;-85
2021/08/31 04:59:56;;;;;;;1.80;1.70;;;;;;;17.63;63.39;99228.31;4917168;29;20230;-83
2021/08/31 05:02:23;;;;;;;1.80;1.70;;;;;;;17.68;62.98;99222.06;4870441;29;20242;-88
2021/08/31 05:04:51;;;;;;;2.30;1.67;;;;;;;17.77;62.92;99228.53;4885792;29;20699;-84
2021/08/31 05:07:18;;;;;;;1.83;1.70;;;;;;;17.95;62.06;99231.47;4873302;29;20234;-84
2021/08/31 05:09:45;;;;;;;1.93;1.73;;;;;;;18.13;61.13;99224.59;4900145;29;20287;-85
2021/08/31 05:12:12;;;;;;;2.10;1.73;;;;;;;18.17;61.02;99209.38;4886453;29;20286;-82
2021/08/31 05:14:38;;;;;;;3.03;1.90;;;;;;;18.30;61.05;99233.19;4889167;29;20238;-83
2021/08/31 05:17:05;;;;;;;1.60;1.50;;;;;;;18.26;61.03;99228.59;4916676;29;20320;-82
2021/08/31 05:19:33;;;;;;;1.70;1.60;;;;;;;18.36;60.91;99234.78;4886388;29;20541;-87
2021/08/31 05:22:01;;;;;;;1.60;1.50;;;;;;;18.34;60.86;99236.13;4885952;29;20254;-81
2021/08/31 05:24:29;;;;;;;1.63;1.53;;;;;;;18.23;61.05;99231.88;4919092;29;20257;-85
2021/08/31 05:26:57;;;;;;;2.20;1.57;;;;;;;18.18;61.09;99231.91;4904743;29;20290;-83
2021/08/31 05:29:24;;;;;;;1.73;1.53;;;;;;;18.18;61.14;99242.75;4920220;29;20545;-86
2021/08/31 05:31:51;;;;;;;1.27;1.27;;;;;;;18.22;60.89;99244.63;4916709;29;20235;-87
2021/08/31 05:34:19;;;;;;;1.30;1.20;;;;;;;18.27;60.73;99246.50;4888723;29;20283;-87
2021/08/31 05:36:46;;;;;;;1.47;1.37;;;;;;;18.19;60.86;99241.66;4885405;29;20231;-87
2021/08/31 05:39:13;;;;;;;1.40;1.30;;;;;;;18.37;60.87;99249.16;4911267;29;20293;-87
2021/08/31 05:41:39;;;;;;;2.53;1.40;;;;;;;18.57;60.07;99262.63;4919910;29;20653;-86
2021/08/31 05:44:06;;;;;;;1.40;1.30;;;;;;;18.77;59.87;99254.34;4916015;29;20230;-85
2021/08/31 05:46:33;;;;;;;2.40;1.10;;;;;;;19.05;58.83;99258.22;4885792;29;20328;-88
2021/08/31 05:49:00;;;;;;;1.10;1.10;;;;;;;19.56;57.51;99253.16;4901074;29;20235;-87
2021/08/31 05:51:27;;;;;;;1.20;1.07;;;;;;;19.74;56.83;99247.00;4885291;29;20298;-87
2021/08/31 05:53:55;;;;;;;1.03;0.93;;;;;;;20.00;56.41;99250.25;4904021;29;20322;-85
2021/08/31 05:56:23;;;;;;;1.23;1.13;;;;;;;20.32;55.12;99263.19;4888196;29;20293;-86
2021/08/31 05:58:51;;;;;;;1.63;1.20;;;;;;;20.47;55.20;99259.47;4900569;29;20227;-86
2021/08/31 06:01:17;;;;;;;1.20;1.10;;;;;;;20.56;54.53;99242.19;4900579;29;20311;-84
2021/08/31 06:03:47;;;;;;;2.20;1.10;;;;;;;20.69;54.38;99248.00;4934951;29;20250;-86
2021/08/31 06:06:17;;;;;;;1.70;1.17;;;;;;;20.90;53.20;99235.69;4919022;29;20238;-83
2021/08/31 06:08:44;;;;;;;1.10;1.10;;;;;;;21.16;52.32;99241.56;4888381;29;20262;-86
2021/08/31 06:11:11;;;;;;;1.20;1.10;;;;;;;21.38;52.03;99249.88;4919063;29;20541;-88
2021/08/31 06:13:38;;;;;;;0.97;0.97;;;;;;;21.36;52.29;99254.84;4903559;29;20306;-87
2021/08/31 06:16:05;;;;;;;2.17;1.10;;;;;;;21.32;51.39;99256.56;4903639;29;20585;-87
2021/08/31 06:18:32;;;;;;;1.20;1.10;;;;;;;21.26;51.89;99252.28;4919238;29;20262;-84
2021/08/31 06:20:59;;;;;;;1.00;1.00;;;;;;;21.39;51.55;99246.88;4887169;29;20275;-87
2021/08/31 06:23:26;;;;;;;1.10;1.00;;;;;;;21.44;50.98;99252.25;4903328;29;20251;-86
2021/08/31 06:25:53;;;;;;;1.20;1.10;;;;;;;21.52;51.36;99242.56;4876632;29;20238;-85
2021/08/31 06:28:20;;;;;;;1.50;1.30;;;;;;;21.67;50.80;99236.00;4894272;29;20227;-86
2021/08/31 06:30:47;;;;;;;1.10;1.10;;;;;;;21.70;50.58;99235.41;4901985;29;20239;-83
2021/08/31 06:33:13;;;;;;;2.70;1.20;;;;;;;21.85;50.76;99248.75;4917261;29;20233;-85
2021/08/31 06:35:40;;;;;;;1.30;1.20;;;;;;;22.03;50.43;99241.59;4903053;29;20770;-84
2021/08/31 06:38:07;;;;;;;1.33;1.23;;;;;;;22.12;49.83;99229.66;4902405;29;20262;-87
2021/08/31 06:40:34;;;;;;;1.43;1.33;;;;;;;22.56;49.11;99245.38;4934301;29;20631;-81
2021/08/31 06:43:01;;;;;;;1.43;1.33;;;;;;;22.62;48.35;99244.16;4902618;29;20231;-85
2021/08/31 06:45:28;;;;;;;2.33;1.30;;;;;;;22.42;48.40;99236.41;4918559;29;20262;-81
2021/08/31 06:47:55;;;;;;;1.47;1.37;;;;;;;21.93;48.42;99228.97;4918476;29;20224;-86
2021/08/31 06:50:22;;;;;;;1.60;1.50;;;;;;;21.68;49.37;99238.44;4914918;29;20241;-84
2021/08/31 06:52:49;;;;;;;1.50;1.40;;;;;;;21.43;49.36;99242.44;4894488;29;20234;-81
2021/08/31 06:55:16;;;;;;;1.60;1.50;;;;;;;21.20;50.49;99243.38;4883898;29;20240;-86
2021/08/31 06:57:43;;;;;;;2.33;1.80;;;;;;;21.48;50.19;99241.53;4900400;29;20232;-85
2021/08/31 07:00:11;;;;;;;1.60;1.50;;;;;;;21.36;50.29;99239.31;4916914;29;20235;-86
2021/08/31 07:02:37;;;;;;;1.90;1.70;;;;;;;21.13;51.04;99251.16;4917694;29;20230;-86
2021/08/31 07:05:05;;;;;;;2.33;1.70;;;;;;;21.07;51.59;99242.22;4917885;29;20242;-85
2021/08/31 07:07:32;;;;;;;3.07;1.90;;;;;;;20.94;51.68;99236.72;4917967;29;20508;-86
2021/08/31 07:09:59;;;;;;;1.87;1.77;;;;;;;20.99;51.39;99242.09;4918135;29;20349;-85
2021/08/31 07:12:26;;;;;;;2.03;1.93;;;;;;;20.89;51.51;99240.34;4917569;29;20242;-85
2021/08/31 07:14:53;;;;;;;2.27;2.10;;;;;;;21.05;51.20;99236.25;4902243;29;20286;-85
2021/08/31 07:17:20;;;;;;;2.00;1.90;;;;;;;21.33;50.95;99233.63;4902467;29;20234;-87
2021/08/31 07:19:48;;;;;;;1.70;1.60;;;;;;;21.35;51.00;99242.31;4902234;29;20573;-86
2021/08/31 07:22:17;;;;;;;2.20;2.00;;;;;;;21.29;50.05;99244.31;4917139;29;20235;-86
2021/08/31 07:24:44;;;;;;;2.10;2.00;;;;;;;21.16;50.48;99236.09;4913936;29;20238;-81
2021/08/31 07:27:12;;;;;;;2.40;2.03;;;;;;;21.09;51.10;99248.16;4898948;29;20312;-85
2021/08/31 07:29:39;;;;;;;2.20;2.00;;;;;;;21.20;51.05;99243.38;4883472;29;20288;-86
2021/08/31 07:32:06;;;;;;;2.07;1.87;;;;;;;20.99;51.03;99253.78;4898416;29;20238;-83
2021/08/31 07:34:33;;;;;;;2.10;2.00;;;;;;;20.92;51.48;99249.81;4883395;29;20699;-85
2021/08/31 07:37:00;;;;;;;2.10;2.00;;;;;;;20.79;51.73;99258.72;4900517;29;20596;-86
2021/08/31 07:39:27;;;;;;;1.90;1.80;;;;;;;20.76;51.95;99245.72;4919162;29;20225;-84
2021/08/31 07:41:54;;;;;;;2.23;1.80;;;;;;;21.12;51.50;99230.44;4917889;29;20313;-86
2021/08/31 07:44:20;;;;;;;1.80;1.70;;;;;;;21.48;51.00;99236.09;4916690;29;20254;-86
2021/08/31 07:46:47;;;;;;;1.80;1.70;;;;;;;21.52;51.04;99228.91;4917699;29;20322;-86
2021/08/31 07:49:14;;;;;;;2.07;1.97;;;;;;;21.59;49.93;99229.34;4918436;29;20234;-86
2021/08/31 07:51:42;;;;;;;1.80;1.70;;;;;;;21.67;48.94;99238.72;4917625;29;20282;-86
2021/08/31 07:54:09;;;;;;;1.97;1.87;;;;;;;21.85;48.47;99252.28;4916770;29;20583;-85
2021/08/31 07:56:36;;;;;;;1.90;1.80;;;;;;;22.24;47.67;99248.25;4917509;29;20230;-86
2021/08/31 07:59:03;;;;;;;1.77;1.67;;;;;;;22.65;46.97;99261.81;4917322;29;20234;-86
2021/08/31 08:01:30;;;;;;;1.43;1.37;;;;;;;22.96;45.70;99248.28;4902230;29;20234;-86
2021/08/31 08:03:58;;;;;;;2.97;1.70;;;;;;;23.42;44.94;99247.97;4902148;29;20239;-85
2021/08/31 08:06:24;;;;;;;2.40;1.60;;;;;;;23.76;44.46;99248.16;4898400;29;20317;-84
2021/08/31 08:08:52;;;;;;;1.70;1.60;;;;;;;24.04;44.21;99271.44;4883231;29;20591;-85
2021/08/31 08:11:18;;;;;;;2.63;1.40;;;;;;;23.59;44.21;99265.31;4898718;29;20685;-84
2021/08/31 08:13:45;;;;;;;1.93;1.53;;;;;;;23.65;44.25;99266.78;4899617;29;20249;-84
2021/08/31 08:16:12;;;;;;;1.60;1.50;;;;;;;23.47;44.59;99280.69;4896886;29;20256;-82
2021/08/31 08:18:39;;;;;;;1.90;1.50;;;;;;;23.18;45.33;99278.38;4866778;29;20237;-81
2021/08/31 08:21:05;;;;;;;1.50;1.40;;;;;;;23.28;45.41;99283.59;4899242;29;20610;-85
2021/08/31 08:23:33;;;;;;;1.60;1.50;;;;;;;22.97;46.15;99288.97;4882595;29;20232;-84
2021/08/31 08:26:03;;;;;;;1.40;1.30;;;;;;;23.01;45.94;99291.88;4915403;29;20237;-84
2021/08/31 08:28:29;;;;;;;1.60;1.50;;;;;;;23.03;46.22;99293.19;4901195;29;20312;-83
2021/08/31 08:30:56;;;;;;;1.50;1.40;;;;;;;22.90;45.93;99283.13;4916528;29;20250;-86
2021/08/31 08:33:23;;;;;;;1.50;1.40;;;;;;;22.71;47.58;99296.94;4932490;29;20565;-81
2021/08/31 08:35:50;;;;;;;2.13;1.43;;;;;;;22.28;48.10;99291.00;4918910;29;20266;-85
2021/08/31 08:38:18;;;;;;;1.60;1.50;;;;;;;22.12;48.97;99297.88;4919907;29;20234;-85
2021/08/31 08:40:45;;;;;;;2.00;1.20;;;;;;;22.22;48.61;99285.94;4889180;29;20233;-85
2021/08/31 08:43:14;;;;;;;1.40;1.30;;;;;;;22.08;48.60;99283.22;4904965;29;20693;-87
2021/08/31 08:45:47;;;;;;;1.60;1.50;;;;;;;22.23;48.53;99288.38;4904100;29;20569;-85
2021/08/31 08:48:25;;;;;;;1.77;1.30;;;;;;;22.46;48.05;99288.44;4903797;29;20230;-84
2021/08/31 08:50:58;;;;;;;2.53;1.60;;;;;;;22.14;48.43;99297.56;4889864;29;20256;-86
2021/08/31 08:53:26;;;;;;;1.50;1.40;;;;;;;22.62;47.67;99293.28;4920267;29;20277;-86
2021/08/31 08:55:53;;;;;;;2.20;1.60;;;;;;;22.63;47.47;99292.16;4904734;29;20277;-84
2021/08/31 08:58:20;;;;;;;1.50;1.40;;;;;;;22.80;47.34;99288.81;4916336;29;20314;-84
2021/08/31 09:00:50;;;;;;;1.20;1.20;;;;;;;23.21;46.65;99300.41;4901509;29;20236;-85
2021/08/31 09:03:19;;;;;;;2.37;1.40;;;;;;;23.16;47.12;99311.47;4901514;29;20658;-85
2021/08/31 09:05:46;;;;;;;1.67;1.57;;;;;;;23.05;46.91;99303.81;4885712;29;20238;-83
2021/08/31 09:08:12;;;;;;;2.53;1.57;;;;;;;23.28;46.11;99300.75;4885607;29;20243;-85
2021/08/31 09:10:44;;;;;;;1.53;1.43;;;;;;;23.61;45.57;99309.53;4900806;29;20247;-85
2021/08/31 09:13:11;;;;;;;1.50;1.40;;;;;;;23.45;46.11;99326.66;4901006;29;20244;-85
2021/08/31 09:15:40;;;;;;;1.40;1.30;;;;;;;23.47;46.34;99317.00;4885409;29;20581;-81
2021/08/31 09:18:09;;;;;;;1.60;1.50;;;;;;;22.98;46.89;99317.09;4884124;29;20236;-82
2021/08/31 09:20:37;;;;;;;1.53;1.43;;;;;;;23.28;47.49;99322.63;4900531;29;20234;-86
2021/08/31 09:23:07;;;;;;;1.57;1.47;;;;;;;23.40;47.25;99333.03;4885382;29;20324;-85
2021/08/31 09:25:36;;;;;;;1.70;1.60;;;;;;;23.03;48.13;99330.63;4885539;29;20583;-85
2021/08/31 09:28:37;;;;;;;1.80;1.70;;;;;;;23.03;47.78;99334.19;4885086;29;20300;-85
2021/08/31 09:31:11;;;;;;;1.70;1.60;;;;;;;22.98;48.31;99347.94;4901733;29;20257;-87
2021/08/31 09:33:43;;;;;;;2.37;1.90;;;;;;;22.56;48.84;99340.91;4885521;29;20709;-84
2021/08/31 09:36:11;;;;;;;2.60;1.70;;;;;;;22.57;49.24;99339.81;4885166;29;20943;-85
2021/08/31 09:38:41;;;;;;;2.50;1.60;;;;;;;22.75;48.63;99346.28;4870165;29;20233;-85
2021/08/31 09:41:08;;;;;;;2.03;1.40;;;;;;;22.82;49.54;99338.47;4885485;29;20232;-85
2021/08/31 09:43:35;;;;;;;1.80;1.70;;;;;;;22.59;49.98;99337.56;4884896;29;20242;-85
2021/08/31 09:46:02;;;;;;;2.23;1.90;;;;;;;22.16;50.96;99333.56;4884172;29;20232;-86
2021/08/31 09:48:29;;;;;;;1.60;1.50;;;;;;;21.72;52.23;99329.44;4884576;29;20261;-83
2021/08/31 09:50:58;;;;;;;1.90;1.70;;;;;;;21.52;52.55;99348.84;4901083;29;20324;-85
2021/08/31 09:53:26;;;;;;;2.00;1.90;;;;;;;21.20;53.69;99357.00;4885323;29;20534;-86
2021/08/31 09:56:02;;;;;;;2.77;1.90;;;;;;;21.52;53.29;99363.28;4890485;29;20234;-87
2021/08/31 09:58:32;;;;;;;2.00;1.80;;;;;;;21.72;54.58;99369.50;4900300;29;20255;-82
2021/08/31 10:00:59;;;;;;;2.50;2.10;;;;;;;22.04;54.97;99355.88;4913307;29;20588;-83
2021/08/31 10:03:28;;;;;;;2.10;2.00;;;;;;;22.31;54.76;99366.00;4919153;29;20240;-87
2021/08/31 10:05:58;;;;;;;4.30;2.20;;;;;;;22.33;54.60;99363.78;4884906;29;20294;-88
2021/08/31 10:08:25;;;;;;;2.00;1.90;;;;;;;22.42;54.96;99370.16;4869166;29;20240;-88
2021/08/31 10:10:53;;;;;;;2.20;2.10;;;;;;;22.20;55.65;99370.84;4869315;29;20727;-87
2021/08/31 10:13:24;;;;;;;2.37;2.13;;;;;;;21.53;57.38;99375.00;4884728;29;20231;-88
2021/08/31 10:15:56;;;;;;;2.13;2.03;;;;;;;21.41;57.87;99377.38;4884841;29;20234;-84
2021/08/31 10:18:25;;;;;;;2.10;2.00;;;;;;;21.49;57.67;99388.41;4900083;29;20236;-87
2021/08/31 10:21:03;;;;;;;2.37;1.90;;;;;;;20.97;58.57;99375.00;4900464;29;20234;-81
2021/08/31 10:23:32;;;;;;;2.10;2.00;;;;;;;21.08;58.39;99393.66;4885244;29;20245;-84
2021/08/31 10:26:29;;;;;;;2.00;1.90;;;;;;;21.01;59.32;99392.38;4869404;29;20231;-82
2021/08/31 10:29:14;;;;;;;2.37;1.90;;;;;;;21.03;58.67;99392.91;4882790;29;20256;-84
2021/08/31 10:31:43;;;;;;;1.60;1.50;;;;;;;20.92;57.75;99394.94;4900785;29;20247;-84
2021/08/31 10:34:31;;;;;;;2.10;1.93;;;;;;;20.78;58.89;99393.22;4899137;29;20239;-87
2021/08/31 10:37:04;;;;;;;2.07;1.97;;;;;;;20.77;59.25;99395.13;4883833;29;20547;-88
2021/08/31 10:39:54;;;;;;;2.10;1.93;;;;;;;20.69;59.63;99394.97;4899702;29;20239;-83
2021/08/31 10:42:26;;;;;;;1.90;1.80;;;;;;;20.75;60.45;99402.81;4883652;29;20404;-86
2021/08/31 10:44:54;;;;;;;2.10;2.00;;;;;;;20.56;61.27;99401.94;4899558;29;20238;-85
2021/08/31 10:47:29;;;;;;;1.80;1.70;;;;;;;20.40;61.10;99401.31;4899066;29;20346;-83
2021/08/31 10:49:59;;;;;;;1.90;1.80;;;;;;;20.50;61.45;99409.34;4899620;29;20235;-88
2021/08/31 10:52:37;;;;;;;1.93;1.80;;;;;;;20.54;61.18;99412.28;4900122;29;20239;-81
2021/08/31 10:55:27;;;;;;;1.90;1.80;;;;;;;20.59;61.60;99409.53;4899488;29;20365;-86
2021/08/31 10:58:02;;;;;;;2.00;1.70;;;;;;;20.55;61.80;99414.75;4909906;29;20298;-86
2021/08/31 11:00:29;;;;;;;2.80;1.80;;;;;;;20.52;61.72;99409.06;4902208;29;20705;-84
2021/08/31 11:02:59;;;;;;;1.80;1.70;;;;;;;20.21;62.86;99414.00;4902723;29;20227;-84
2021/08/31 11:05:29;;;;;;;1.60;1.50;;;;;;;20.22;62.89;99408.28;4914153;29;20246;-82
2021/08/31 11:08:01;;;;;;;1.70;1.60;;;;;;;20.05;63.74;99416.06;4899187;29;20592;-85
2021/08/31 11:10:33;;;;;;;1.73;1.43;;;;;;;19.92;62.98;99418.66;4900158;29;20243;-88
2021/08/31 11:13:18;;;;;;;1.87;1.40;;;;;;;19.93;64.27;99417.53;4883615;29;20234;-83
2021/08/31 11:15:48;;;;;;;1.60;1.50;;;;;;;20.05;64.10;99407.91;4914327;29;20571;-82
2021/08/31 11:18:19;;;;;;;1.70;1.60;;;;;;;20.10;63.41;99423.38;4902371;29;20233;-89
2021/08/31 11:20:46;;;;;;;2.00;1.50;;;;;;;19.76;64.92;99432.34;4887126;29;20379;-86
2021/08/31 11:23:17;;;;;;;1.37;1.27;;;;;;;19.95;64.11;99424.31;4918015;29;20263;-86
2021/08/31 11:25:47;;;;;;;2.00;1.80;;;;;;;20.22;64.34;99434.66;4918292;29;20242;-84
2021/08/31 11:28:15;;;;;;;2.93;2.00;;;;;;;20.50;62.93;99422.97;4918498;29;20234;-83
2021/08/31 11:31:11;;;;;;;10.40;2.80;;;;;;;20.43;62.32;99425.22;4917264;29;20642;-82
2021/08/31 11:33:40;;;;;;;2.73;2.30;;;;;;;21.00;61.49;99421.50;4903188;29;20285;-82
2021/08/31 11:36:12;;;;;;;2.00;1.90;;;;;;;21.30;60.64;99433.94;4917200;29;20305;-88
2021/08/31 11:38:45;;;;;;;1.87;1.77;;;;;;;21.05;61.15;99424.19;4902146;29;20238;-89
2021/08/31 11:41:19;;;;;;;2.30;2.10;;;;;;;21.40;57.88;99425.63;4886503;29;20242;-87